RJCT(METAR)
10/20 06:00
METAR RJCT 192100Z VRB01KT 9999 FEW002 SCT050 M02/M02 Q1026 RMK
1ST002 3SC050 A3031=
戻る
トップページへ戻る
IMOC Co,.Ltd.